sensor_id;sensor_type;location;lat;lon;timestamp;P1;durP1;ratioP1;P2;durP2;ratioP2
16516;SDS011;8371;52.272;9.746;2024-03-02T00:00:21;5.33;;;5.03;;
16516;SDS011;8371;52.272;9.746;2024-03-02T00:02:48;4.83;;;4.63;;
16516;SDS011;8371;52.272;9.746;2024-03-02T00:05:15;5.10;;;4.90;;
16516;SDS011;8371;52.272;9.746;2024-03-02T00:07:43;5.27;;;4.97;;
16516;SDS011;8371;52.272;9.746;2024-03-02T00:10:11;5.30;;;5.10;;
16516;SDS011;8371;52.272;9.746;2024-03-02T00:12:39;5.20;;;5.00;;
16516;SDS011;8371;52.272;9.746;2024-03-02T00:15:05;5.23;;;5.03;;
16516;SDS011;8371;52.272;9.746;2024-03-02T00:17:34;5.47;;;5.07;;
16516;SDS011;8371;52.272;9.746;2024-03-02T00:20:00;5.50;;;5.30;;
16516;SDS011;8371;52.272;9.746;2024-03-02T00:22:27;5.17;;;4.87;;
16516;SDS011;8371;52.272;9.746;2024-03-02T00:24:53;5.33;;;5.13;;
16516;SDS011;8371;52.272;9.746;2024-03-02T00:27:19;5.83;;;5.63;;
16516;SDS011;8371;52.272;9.746;2024-03-02T00:29:45;5.93;;;5.73;;
16516;SDS011;8371;52.272;9.746;2024-03-02T00:32:14;5.63;;;5.27;;
16516;SDS011;8371;52.272;9.746;2024-03-02T00:34:41;5.60;;;5.40;;
16516;SDS011;8371;52.272;9.746;2024-03-02T00:37:07;5.70;;;5.40;;
16516;SDS011;8371;52.272;9.746;2024-03-02T00:39:34;6.53;;;6.13;;
16516;SDS011;8371;52.272;9.746;2024-03-02T00:41:59;5.83;;;5.53;;
16516;SDS011;8371;52.272;9.746;2024-03-02T00:44:25;6.00;;;5.70;;
16516;SDS011;8371;52.272;9.746;2024-03-02T00:46:51;6.10;;;5.80;;
16516;SDS011;8371;52.272;9.746;2024-03-02T00:51:47;6.23;;;5.93;;
16516;SDS011;8371;52.272;9.746;2024-03-02T00:54:14;6.00;;;5.80;;
16516;SDS011;8371;52.272;9.746;2024-03-02T00:56:41;6.03;;;5.73;;
16516;SDS011;8371;52.272;9.746;2024-03-02T00:59:07;6.43;;;6.13;;
16516;SDS011;8371;52.272;9.746;2024-03-02T01:01:35;6.33;;;6.03;;
16516;SDS011;8371;52.272;9.746;2024-03-02T01:04:01;6.37;;;5.87;;
16516;SDS011;8371;52.272;9.746;2024-03-02T01:06:26;5.57;;;5.37;;
16516;SDS011;8371;52.272;9.746;2024-03-02T01:08:53;7.03;;;6.63;;
16516;SDS011;8371;52.272;9.746;2024-03-02T01:11:18;6.63;;;6.33;;
16516;SDS011;8371;52.272;9.746;2024-03-02T01:13:46;6.43;;;6.13;;
16516;SDS011;8371;52.272;9.746;2024-03-02T01:16:12;6.40;;;6.10;;
16516;SDS011;8371;52.272;9.746;2024-03-02T01:18:37;6.00;;;5.70;;
16516;SDS011;8371;52.272;9.746;2024-03-02T01:21:03;6.80;;;6.43;;
16516;SDS011;8371;52.272;9.746;2024-03-02T01:23:29;7.27;;;6.83;;
16516;SDS011;8371;52.272;9.746;2024-03-02T01:25:55;6.83;;;6.43;;
16516;SDS011;8371;52.272;9.746;2024-03-02T01:28:20;6.73;;;6.33;;
16516;SDS011;8371;52.272;9.746;2024-03-02T01:30:47;7.40;;;7.00;;
16516;SDS011;8371;52.272;9.746;2024-03-02T01:33:13;6.73;;;6.33;;
16516;SDS011;8371;52.272;9.746;2024-03-02T01:35:38;7.10;;;6.70;;
16516;SDS011;8371;52.272;9.746;2024-03-02T01:38:04;7.60;;;7.10;;
16516;SDS011;8371;52.272;9.746;2024-03-02T01:40:33;7.97;;;7.47;;
16516;SDS011;8371;52.272;9.746;2024-03-02T01:43:00;7.50;;;7.10;;
16516;SDS011;8371;52.272;9.746;2024-03-02T01:45:25;7.53;;;6.80;;
16516;SDS011;8371;52.272;9.746;2024-03-02T01:47:52;7.03;;;6.70;;
16516;SDS011;8371;52.272;9.746;2024-03-02T01:50:33;6.97;;;6.57;;
16516;SDS011;8371;52.272;9.746;2024-03-02T01:52:59;7.30;;;6.80;;
16516;SDS011;8371;52.272;9.746;2024-03-02T01:55:25;7.40;;;7.03;;
16516;SDS011;8371;52.272;9.746;2024-03-02T01:57:52;8.03;;;7.63;;
16516;SDS011;8371;52.272;9.746;2024-03-02T02:00:22;7.23;;;6.83;;
16516;SDS011;8371;52.272;9.746;2024-03-02T02:02:46;8.17;;;7.47;;
16516;SDS011;8371;52.272;9.746;2024-03-02T02:05:13;7.30;;;6.77;;
16516;SDS011;8371;52.272;9.746;2024-03-02T02:07:40;7.80;;;7.30;;
16516;SDS011;8371;52.272;9.746;2024-03-02T02:10:07;8.30;;;7.60;;
16516;SDS011;8371;52.272;9.746;2024-03-02T02:12:33;8.03;;;7.53;;
16516;SDS011;8371;52.272;9.746;2024-03-02T02:14:59;7.07;;;6.67;;
16516;SDS011;8371;52.272;9.746;2024-03-02T02:17:24;7.57;;;7.13;;
16516;SDS011;8371;52.272;9.746;2024-03-02T02:19:50;8.10;;;7.70;;
16516;SDS011;8371;52.272;9.746;2024-03-02T02:22:16;7.77;;;7.07;;
16516;SDS011;8371;52.272;9.746;2024-03-02T02:24:42;7.27;;;6.87;;
16516;SDS011;8371;52.272;9.746;2024-03-02T02:27:08;8.73;;;7.90;;
16516;SDS011;8371;52.272;9.746;2024-03-02T02:29:34;7.17;;;6.77;;
16516;SDS011;8371;52.272;9.746;2024-03-02T02:32:00;7.53;;;7.03;;
16516;SDS011;8371;52.272;9.746;2024-03-02T02:34:25;7.70;;;7.30;;
16516;SDS011;8371;52.272;9.746;2024-03-02T02:36:51;8.57;;;8.00;;
16516;SDS011;8371;52.272;9.746;2024-03-02T02:39:18;7.50;;;7.07;;
16516;SDS011;8371;52.272;9.746;2024-03-02T02:41:46;7.20;;;6.80;;
16516;SDS011;8371;52.272;9.746;2024-03-02T02:44:11;8.00;;;7.50;;
16516;SDS011;8371;52.272;9.746;2024-03-02T02:46:38;7.30;;;6.83;;
16516;SDS011;8371;52.272;9.746;2024-03-02T02:49:04;7.20;;;6.83;;
16516;SDS011;8371;52.272;9.746;2024-03-02T02:51:30;7.60;;;7.10;;
16516;SDS011;8371;52.272;9.746;2024-03-02T02:53:56;7.47;;;7.07;;
16516;SDS011;8371;52.272;9.746;2024-03-02T02:56:22;7.50;;;6.97;;
16516;SDS011;8371;52.272;9.746;2024-03-02T02:58:47;6.77;;;6.37;;
16516;SDS011;8371;52.272;9.746;2024-03-02T03:01:14;7.13;;;6.67;;
16516;SDS011;8371;52.272;9.746;2024-03-02T03:03:42;5.97;;;5.67;;
16516;SDS011;8371;52.272;9.746;2024-03-02T03:06:08;6.93;;;6.57;;
16516;SDS011;8371;52.272;9.746;2024-03-02T03:08:33;6.63;;;6.23;;
16516;SDS011;8371;52.272;9.746;2024-03-02T03:10:59;6.97;;;6.57;;
16516;SDS011;8371;52.272;9.746;2024-03-02T03:13:24;6.73;;;6.30;;
16516;SDS011;8371;52.272;9.746;2024-03-02T03:15:50;6.13;;;5.73;;
16516;SDS011;8371;52.272;9.746;2024-03-02T03:18:16;6.53;;;6.13;;
16516;SDS011;8371;52.272;9.746;2024-03-02T03:20:42;6.60;;;6.20;;
16516;SDS011;8371;52.272;9.746;2024-03-02T03:23:07;6.77;;;6.37;;
16516;SDS011;8371;52.272;9.746;2024-03-02T03:25:34;5.83;;;5.43;;
16516;SDS011;8371;52.272;9.746;2024-03-02T03:28:00;6.00;;;5.70;;
16516;SDS011;8371;52.272;9.746;2024-03-02T03:30:27;5.93;;;5.63;;
16516;SDS011;8371;52.272;9.746;2024-03-02T03:32:53;6.43;;;6.10;;
16516;SDS011;8371;52.272;9.746;2024-03-02T03:35:18;6.50;;;6.20;;
16516;SDS011;8371;52.272;9.746;2024-03-02T03:37:44;6.70;;;6.33;;
16516;SDS011;8371;52.272;9.746;2024-03-02T03:40:10;6.87;;;6.47;;
16516;SDS011;8371;52.272;9.746;2024-03-02T03:42:37;5.97;;;5.67;;
16516;SDS011;8371;52.272;9.746;2024-03-02T03:45:03;6.47;;;6.07;;
16516;SDS011;8371;52.272;9.746;2024-03-02T03:47:33;7.13;;;6.63;;
16516;SDS011;8371;52.272;9.746;2024-03-02T03:49:59;6.23;;;5.93;;
16516;SDS011;8371;52.272;9.746;2024-03-02T03:52:25;6.43;;;6.13;;
16516;SDS011;8371;52.272;9.746;2024-03-02T03:54:50;6.60;;;6.27;;
16516;SDS011;8371;52.272;9.746;2024-03-02T03:57:16;5.77;;;5.50;;
16516;SDS011;8371;52.272;9.746;2024-03-02T03:59:43;6.60;;;6.20;;
16516;SDS011;8371;52.272;9.746;2024-03-02T04:02:09;6.67;;;6.27;;
16516;SDS011;8371;52.272;9.746;2024-03-02T04:04:37;6.60;;;6.20;;
16516;SDS011;8371;52.272;9.746;2024-03-02T04:07:02;5.77;;;5.47;;
16516;SDS011;8371;52.272;9.746;2024-03-02T04:09:28;6.80;;;6.50;;
16516;SDS011;8371;52.272;9.746;2024-03-02T04:11:54;5.97;;;5.67;;
16516;SDS011;8371;52.272;9.746;2024-03-02T04:14:19;6.50;;;6.20;;
16516;SDS011;8371;52.272;9.746;2024-03-02T04:16:45;6.90;;;6.33;;
16516;SDS011;8371;52.272;9.746;2024-03-02T04:19:11;6.47;;;6.07;;
16516;SDS011;8371;52.272;9.746;2024-03-02T04:21:37;5.90;;;5.60;;
16516;SDS011;8371;52.272;9.746;2024-03-02T04:24:03;6.80;;;6.40;;
16516;SDS011;8371;52.272;9.746;2024-03-02T04:26:29;6.30;;;6.00;;
16516;SDS011;8371;52.272;9.746;2024-03-02T04:28:54;6.80;;;6.40;;
16516;SDS011;8371;52.272;9.746;2024-03-02T04:31:20;6.37;;;6.07;;
16516;SDS011;8371;52.272;9.746;2024-03-02T04:33:46;5.83;;;5.53;;
16516;SDS011;8371;52.272;9.746;2024-03-02T04:36:12;6.23;;;5.93;;
16516;SDS011;8371;52.272;9.746;2024-03-02T04:38:38;7.53;;;7.03;;
16516;SDS011;8371;52.272;9.746;2024-03-02T04:41:04;7.53;;;7.03;;
16516;SDS011;8371;52.272;9.746;2024-03-02T04:43:31;6.80;;;6.47;;
16516;SDS011;8371;52.272;9.746;2024-03-02T04:45:58;7.00;;;6.60;;
16516;SDS011;8371;52.272;9.746;2024-03-02T04:48:24;6.97;;;6.57;;
16516;SDS011;8371;52.272;9.746;2024-03-02T04:50:49;6.07;;;5.77;;
16516;SDS011;8371;52.272;9.746;2024-03-02T04:53:15;6.10;;;5.70;;
16516;SDS011;8371;52.272;9.746;2024-03-02T04:55:41;5.80;;;5.50;;
16516;SDS011;8371;52.272;9.746;2024-03-02T04:58:08;6.57;;;6.17;;
16516;SDS011;8371;52.272;9.746;2024-03-02T05:00:34;6.63;;;6.07;;
16516;SDS011;8371;52.272;9.746;2024-03-02T05:03:00;5.93;;;5.63;;
16516;SDS011;8371;52.272;9.746;2024-03-02T05:05:27;6.60;;;6.20;;
16516;SDS011;8371;52.272;9.746;2024-03-02T05:07:52;6.03;;;5.73;;
16516;SDS011;8371;52.272;9.746;2024-03-02T05:10:18;6.17;;;5.80;;
16516;SDS011;8371;52.272;9.746;2024-03-02T05:12:44;7.30;;;6.60;;
16516;SDS011;8371;52.272;9.746;2024-03-02T05:15:12;7.27;;;6.87;;
16516;SDS011;8371;52.272;9.746;2024-03-02T05:17:39;6.73;;;6.23;;
16516;SDS011;8371;52.272;9.746;2024-03-02T05:20:07;6.63;;;6.23;;
16516;SDS011;8371;52.272;9.746;2024-03-02T05:22:34;6.27;;;5.97;;
16516;SDS011;8371;52.272;9.746;2024-03-02T05:25:01;7.30;;;6.93;;
16516;SDS011;8371;52.272;9.746;2024-03-02T05:27:27;7.63;;;7.03;;
16516;SDS011;8371;52.272;9.746;2024-03-02T05:29:53;7.20;;;6.80;;
16516;SDS011;8371;52.272;9.746;2024-03-02T05:32:19;7.73;;;7.23;;
16516;SDS011;8371;52.272;9.746;2024-03-02T05:34:44;7.20;;;6.80;;
16516;SDS011;8371;52.272;9.746;2024-03-02T05:37:10;7.73;;;7.23;;
16516;SDS011;8371;52.272;9.746;2024-03-02T05:39:36;7.07;;;6.70;;
16516;SDS011;8371;52.272;9.746;2024-03-02T05:42:02;7.67;;;7.23;;
16516;SDS011;8371;52.272;9.746;2024-03-02T05:44:28;7.53;;;7.13;;
16516;SDS011;8371;52.272;9.746;2024-03-02T05:46:54;7.27;;;6.87;;
16516;SDS011;8371;52.272;9.746;2024-03-02T05:49:20;6.33;;;5.93;;
16516;SDS011;8371;52.272;9.746;2024-03-02T05:51:46;8.10;;;7.50;;
16516;SDS011;8371;52.272;9.746;2024-03-02T05:54:12;6.57;;;6.27;;
16516;SDS011;8371;52.272;9.746;2024-03-02T05:56:37;7.30;;;6.83;;
16516;SDS011;8371;52.272;9.746;2024-03-02T05:59:03;8.13;;;7.53;;
16516;SDS011;8371;52.272;9.746;2024-03-02T06:01:37;7.57;;;7.13;;
16516;SDS011;8371;52.272;9.746;2024-03-02T06:04:02;7.63;;;7.03;;
16516;SDS011;8371;52.272;9.746;2024-03-02T06:06:28;8.47;;;7.97;;
16516;SDS011;8371;52.272;9.746;2024-03-02T06:08:54;7.77;;;7.27;;
16516;SDS011;8371;52.272;9.746;2024-03-02T06:11:20;7.87;;;7.47;;
16516;SDS011;8371;52.272;9.746;2024-03-02T06:13:46;7.63;;;7.17;;
16516;SDS011;8371;52.272;9.746;2024-03-02T06:16:12;8.43;;;7.87;;
16516;SDS011;8371;52.272;9.746;2024-03-02T06:18:37;8.53;;;7.83;;
16516;SDS011;8371;52.272;9.746;2024-03-02T06:21:03;8.23;;;7.63;;
16516;SDS011;8371;52.272;9.746;2024-03-02T06:23:29;8.70;;;8.03;;
16516;SDS011;8371;52.272;9.746;2024-03-02T06:25:55;8.20;;;7.70;;
16516;SDS011;8371;52.272;9.746;2024-03-02T06:28:20;7.90;;;7.33;;
16516;SDS011;8371;52.272;9.746;2024-03-02T06:30:46;7.37;;;6.90;;
16516;SDS011;8371;52.272;9.746;2024-03-02T06:33:12;7.83;;;7.33;;
16516;SDS011;8371;52.272;9.746;2024-03-02T06:35:38;8.17;;;7.67;;
16516;SDS011;8371;52.272;9.746;2024-03-02T06:38:04;8.73;;;7.93;;
16516;SDS011;8371;52.272;9.746;2024-03-02T06:40:30;8.60;;;8.07;;
16516;SDS011;8371;52.272;9.746;2024-03-02T06:42:55;8.03;;;7.53;;
16516;SDS011;8371;52.272;9.746;2024-03-02T06:45:21;7.50;;;6.87;;
16516;SDS011;8371;52.272;9.746;2024-03-02T06:47:47;7.50;;;7.10;;
16516;SDS011;8371;52.272;9.746;2024-03-02T06:50:12;7.87;;;7.27;;
16516;SDS011;8371;52.272;9.746;2024-03-02T06:52:38;7.67;;;7.17;;
16516;SDS011;8371;52.272;9.746;2024-03-02T06:55:04;8.53;;;7.93;;
16516;SDS011;8371;52.272;9.746;2024-03-02T06:57:30;8.57;;;7.87;;
16516;SDS011;8371;52.272;9.746;2024-03-02T06:59:56;8.67;;;8.07;;
16516;SDS011;8371;52.272;9.746;2024-03-02T07:02:26;8.60;;;8.00;;
16516;SDS011;8371;52.272;9.746;2024-03-02T07:04:53;8.73;;;8.13;;
16516;SDS011;8371;52.272;9.746;2024-03-02T07:07:22;7.60;;;7.13;;
16516;SDS011;8371;52.272;9.746;2024-03-02T07:09:47;7.87;;;7.37;;
16516;SDS011;8371;52.272;9.746;2024-03-02T07:12:15;8.07;;;7.60;;
16516;SDS011;8371;52.272;9.746;2024-03-02T07:14:41;7.90;;;7.50;;
16516;SDS011;8371;52.272;9.746;2024-03-02T07:17:21;7.10;;;6.77;;
16516;SDS011;8371;52.272;9.746;2024-03-02T07:19:46;8.67;;;7.97;;
16516;SDS011;8371;52.272;9.746;2024-03-02T07:22:12;8.20;;;7.70;;
16516;SDS011;8371;52.272;9.746;2024-03-02T07:24:39;7.97;;;7.47;;
16516;SDS011;8371;52.272;9.746;2024-03-02T07:27:07;7.50;;;6.93;;
16516;SDS011;8371;52.272;9.746;2024-03-02T07:29:34;8.63;;;8.03;;
16516;SDS011;8371;52.272;9.746;2024-03-02T07:31:59;7.00;;;6.70;;
16516;SDS011;8371;52.272;9.746;2024-03-02T07:34:25;7.80;;;7.33;;
16516;SDS011;8371;52.272;9.746;2024-03-02T07:36:51;7.60;;;7.10;;
16516;SDS011;8371;52.272;9.746;2024-03-02T07:39:16;7.70;;;7.17;;
16516;SDS011;8371;52.272;9.746;2024-03-02T07:41:42;7.53;;;7.17;;
16516;SDS011;8371;52.272;9.746;2024-03-02T07:44:09;8.27;;;7.77;;
16516;SDS011;8371;52.272;9.746;2024-03-02T07:46:34;7.63;;;7.13;;
16516;SDS011;8371;52.272;9.746;2024-03-02T07:49:00;7.90;;;7.40;;
16516;SDS011;8371;52.272;9.746;2024-03-02T07:51:26;8.50;;;7.80;;
16516;SDS011;8371;52.272;9.746;2024-03-02T07:53:51;8.07;;;7.60;;
16516;SDS011;8371;52.272;9.746;2024-03-02T07:56:17;8.20;;;7.80;;
16516;SDS011;8371;52.272;9.746;2024-03-02T07:58:45;8.43;;;7.83;;
16516;SDS011;8371;52.272;9.746;2024-03-02T08:01:11;8.47;;;7.97;;
16516;SDS011;8371;52.272;9.746;2024-03-02T08:03:37;7.97;;;7.53;;
16516;SDS011;8371;52.272;9.746;2024-03-02T08:06:03;9.30;;;8.60;;
16516;SDS011;8371;52.272;9.746;2024-03-02T08:08:29;7.53;;;7.10;;
16516;SDS011;8371;52.272;9.746;2024-03-02T08:10:54;9.10;;;8.53;;
16516;SDS011;8371;52.272;9.746;2024-03-02T08:13:20;8.23;;;7.63;;
16516;SDS011;8371;52.272;9.746;2024-03-02T08:15:46;8.03;;;7.53;;
16516;SDS011;8371;52.272;9.746;2024-03-02T08:18:12;7.97;;;7.33;;
16516;SDS011;8371;52.272;9.746;2024-03-02T08:20:37;8.23;;;7.67;;
16516;SDS011;8371;52.272;9.746;2024-03-02T08:23:04;8.07;;;7.37;;
16516;SDS011;8371;52.272;9.746;2024-03-02T08:25:30;8.60;;;8.10;;
16516;SDS011;8371;52.272;9.746;2024-03-02T08:27:56;8.40;;;7.93;;
16516;SDS011;8371;52.272;9.746;2024-03-02T08:30:22;8.73;;;8.20;;
16516;SDS011;8371;52.272;9.746;2024-03-02T08:32:47;8.30;;;7.80;;
16516;SDS011;8371;52.272;9.746;2024-03-02T08:35:13;8.43;;;7.83;;
16516;SDS011;8371;52.272;9.746;2024-03-02T08:37:39;8.07;;;7.67;;
16516;SDS011;8371;52.272;9.746;2024-03-02T08:40:08;8.17;;;7.73;;
16516;SDS011;8371;52.272;9.746;2024-03-02T08:42:34;8.50;;;8.03;;
16516;SDS011;8371;52.272;9.746;2024-03-02T08:45:00;8.47;;;7.97;;
16516;SDS011;8371;52.272;9.746;2024-03-02T08:47:28;9.03;;;8.47;;
16516;SDS011;8371;52.272;9.746;2024-03-02T08:49:54;8.50;;;8.00;;
16516;SDS011;8371;52.272;9.746;2024-03-02T08:52:20;8.87;;;8.30;;
16516;SDS011;8371;52.272;9.746;2024-03-02T08:54:45;8.10;;;7.53;;
16516;SDS011;8371;52.272;9.746;2024-03-02T08:57:11;7.73;;;7.33;;
16516;SDS011;8371;52.272;9.746;2024-03-02T08:59:37;8.27;;;7.77;;
16516;SDS011;8371;52.272;9.746;2024-03-02T09:02:02;8.43;;;7.77;;
16516;SDS011;8371;52.272;9.746;2024-03-02T09:04:29;7.63;;;7.23;;
16516;SDS011;8371;52.272;9.746;2024-03-02T09:06:54;7.80;;;7.40;;
16516;SDS011;8371;52.272;9.746;2024-03-02T09:09:20;8.30;;;7.77;;
16516;SDS011;8371;52.272;9.746;2024-03-02T09:11:46;8.17;;;7.57;;
16516;SDS011;8371;52.272;9.746;2024-03-02T09:14:12;8.27;;;7.70;;
16516;SDS011;8371;52.272;9.746;2024-03-02T09:16:40;8.40;;;7.80;;
16516;SDS011;8371;52.272;9.746;2024-03-02T09:19:05;8.57;;;7.87;;
16516;SDS011;8371;52.272;9.746;2024-03-02T09:21:31;8.80;;;8.33;;
16516;SDS011;8371;52.272;9.746;2024-03-02T09:23:57;7.20;;;6.80;;
16516;SDS011;8371;52.272;9.746;2024-03-02T09:26:23;8.00;;;7.50;;
16516;SDS011;8371;52.272;9.746;2024-03-02T09:28:50;7.27;;;6.90;;
16516;SDS011;8371;52.272;9.746;2024-03-02T09:31:16;8.40;;;7.77;;
16516;SDS011;8371;52.272;9.746;2024-03-02T09:33:41;8.00;;;7.50;;
16516;SDS011;8371;52.272;9.746;2024-03-02T09:36:21;8.63;;;8.13;;
16516;SDS011;8371;52.272;9.746;2024-03-02T09:38:44;7.83;;;7.43;;
16516;SDS011;8371;52.272;9.746;2024-03-02T09:41:10;7.77;;;7.37;;
16516;SDS011;8371;52.272;9.746;2024-03-02T09:43:36;8.10;;;7.60;;
16516;SDS011;8371;52.272;9.746;2024-03-02T09:46:02;7.83;;;7.43;;
16516;SDS011;8371;52.272;9.746;2024-03-02T09:48:29;7.80;;;7.33;;
16516;SDS011;8371;52.272;9.746;2024-03-02T09:50:54;8.00;;;7.60;;
16516;SDS011;8371;52.272;9.746;2024-03-02T09:53:21;8.23;;;7.63;;
16516;SDS011;8371;52.272;9.746;2024-03-02T09:55:48;9.43;;;7.33;;
16516;SDS011;8371;52.272;9.746;2024-03-02T09:58:14;7.70;;;7.20;;
16516;SDS011;8371;52.272;9.746;2024-03-02T10:00:40;6.83;;;6.47;;
16516;SDS011;8371;52.272;9.746;2024-03-02T10:03:05;7.50;;;7.00;;
16516;SDS011;8371;52.272;9.746;2024-03-02T10:05:35;7.97;;;7.53;;
16516;SDS011;8371;52.272;9.746;2024-03-02T10:08:01;7.07;;;6.67;;
16516;SDS011;8371;52.272;9.746;2024-03-02T10:10:34;7.47;;;7.07;;
16516;SDS011;8371;52.272;9.746;2024-03-02T10:13:04;7.23;;;6.70;;
16516;SDS011;8371;52.272;9.746;2024-03-02T10:15:31;7.33;;;6.90;;
16516;SDS011;8371;52.272;9.746;2024-03-02T10:17:57;7.30;;;6.97;;
16516;SDS011;8371;52.272;9.746;2024-03-02T10:20:28;7.30;;;7.00;;
16516;SDS011;8371;52.272;9.746;2024-03-02T10:22:54;6.70;;;6.30;;
16516;SDS011;8371;52.272;9.746;2024-03-02T10:25:30;8.03;;;7.60;;
16516;SDS011;8371;52.272;9.746;2024-03-02T10:27:57;7.10;;;6.80;;
16516;SDS011;8371;52.272;9.746;2024-03-02T10:30:26;7.10;;;6.70;;
16516;SDS011;8371;52.272;9.746;2024-03-02T10:32:53;7.63;;;7.00;;
16516;SDS011;8371;52.272;9.746;2024-03-02T10:35:21;6.60;;;6.20;;
16516;SDS011;8371;52.272;9.746;2024-03-02T10:37:52;6.67;;;6.27;;
16516;SDS011;8371;52.272;9.746;2024-03-02T10:40:18;6.40;;;6.10;;
16516;SDS011;8371;52.272;9.746;2024-03-02T10:42:51;6.83;;;6.53;;
16516;SDS011;8371;52.272;9.746;2024-03-02T10:45:18;6.80;;;6.50;;
16516;SDS011;8371;52.272;9.746;2024-03-02T10:47:46;7.13;;;6.83;;
16516;SDS011;8371;52.272;9.746;2024-03-02T10:50:12;6.37;;;5.97;;
16516;SDS011;8371;52.272;9.746;2024-03-02T10:52:38;6.27;;;6.03;;
16516;SDS011;8371;52.272;9.746;2024-03-02T10:55:05;6.33;;;6.03;;
16516;SDS011;8371;52.272;9.746;2024-03-02T10:57:33;5.83;;;5.53;;
16516;SDS011;8371;52.272;9.746;2024-03-02T11:00:02;6.10;;;5.70;;
16516;SDS011;8371;52.272;9.746;2024-03-02T11:02:28;7.07;;;6.67;;
16516;SDS011;8371;52.272;9.746;2024-03-02T11:04:56;6.63;;;6.33;;
16516;SDS011;8371;52.272;9.746;2024-03-02T11:07:24;6.23;;;5.93;;
16516;SDS011;8371;52.272;9.746;2024-03-02T11:09:57;6.37;;;6.07;;
16516;SDS011;8371;52.272;9.746;2024-03-02T11:12:23;5.57;;;5.27;;
16516;SDS011;8371;52.272;9.746;2024-03-02T11:15:02;6.07;;;5.77;;
16516;SDS011;8371;52.272;9.746;2024-03-02T11:17:32;5.70;;;5.50;;
16516;SDS011;8371;52.272;9.746;2024-03-02T11:19:57;5.47;;;5.17;;
16516;SDS011;8371;52.272;9.746;2024-03-02T11:22:24;5.07;;;4.87;;
16516;SDS011;8371;52.272;9.746;2024-03-02T11:24:51;5.00;;;4.80;;
16516;SDS011;8371;52.272;9.746;2024-03-02T11:30:56;5.13;;;4.87;;
16516;SDS011;8371;52.272;9.746;2024-03-02T11:32:56;4.93;;;4.73;;
16516;SDS011;8371;52.272;9.746;2024-03-02T11:35:23;5.13;;;4.83;;
16516;SDS011;8371;52.272;9.746;2024-03-02T11:37:51;5.13;;;4.93;;
16516;SDS011;8371;52.272;9.746;2024-03-02T11:40:24;5.17;;;4.97;;
16516;SDS011;8371;52.272;9.746;2024-03-02T11:42:50;5.27;;;5.03;;
16516;SDS011;8371;52.272;9.746;2024-03-02T11:45:17;4.23;;;4.03;;
16516;SDS011;8371;52.272;9.746;2024-03-02T11:47:51;4.23;;;4.13;;
16516;SDS011;8371;52.272;9.746;2024-03-02T11:53:01;4.53;;;4.33;;
16516;SDS011;8371;52.272;9.746;2024-03-02T11:55:27;4.40;;;4.20;;
16516;SDS011;8371;52.272;9.746;2024-03-02T11:57:55;4.67;;;4.47;;
16516;SDS011;8371;52.272;9.746;2024-03-02T12:00:21;4.77;;;4.50;;
16516;SDS011;8371;52.272;9.746;2024-03-02T12:02:47;4.07;;;3.90;;
16516;SDS011;8371;52.272;9.746;2024-03-02T12:05:16;4.60;;;4.40;;
16516;SDS011;8371;52.272;9.746;2024-03-02T12:07:42;4.50;;;4.30;;
16516;SDS011;8371;52.272;9.746;2024-03-02T12:10:08;4.37;;;4.13;;
16516;SDS011;8371;52.272;9.746;2024-03-02T12:12:34;4.03;;;3.83;;
16516;SDS011;8371;52.272;9.746;2024-03-02T12:15:00;3.90;;;3.70;;
16516;SDS011;8371;52.272;9.746;2024-03-02T12:17:26;3.50;;;3.40;;
16516;SDS011;8371;52.272;9.746;2024-03-02T12:19:52;3.60;;;3.50;;
16516;SDS011;8371;52.272;9.746;2024-03-02T12:22:18;3.87;;;3.67;;
16516;SDS011;8371;52.272;9.746;2024-03-02T12:24:44;3.73;;;3.53;;
16516;SDS011;8371;52.272;9.746;2024-03-02T12:27:13;3.27;;;3.17;;
16516;SDS011;8371;52.272;9.746;2024-03-02T12:29:40;3.30;;;3.20;;
16516;SDS011;8371;52.272;9.746;2024-03-02T12:32:06;2.93;;;2.83;;
16516;SDS011;8371;52.272;9.746;2024-03-02T12:34:32;2.97;;;2.87;;
16516;SDS011;8371;52.272;9.746;2024-03-02T12:36:58;3.03;;;2.93;;
16516;SDS011;8371;52.272;9.746;2024-03-02T12:39:24;3.13;;;3.03;;
16516;SDS011;8371;52.272;9.746;2024-03-02T12:41:50;2.47;;;2.37;;
16516;SDS011;8371;52.272;9.746;2024-03-02T12:44:20;3.33;;;3.23;;
16516;SDS011;8371;52.272;9.746;2024-03-02T12:46:43;3.17;;;3.07;;
16516;SDS011;8371;52.272;9.746;2024-03-02T12:49:10;3.00;;;2.90;;
16516;SDS011;8371;52.272;9.746;2024-03-02T12:51:37;3.10;;;3.00;;
16516;SDS011;8371;52.272;9.746;2024-03-02T12:54:06;2.80;;;2.60;;
16516;SDS011;8371;52.272;9.746;2024-03-02T12:56:33;2.60;;;2.50;;
16516;SDS011;8371;52.272;9.746;2024-03-02T12:58:59;2.70;;;2.60;;
16516;SDS011;8371;52.272;9.746;2024-03-02T13:01:25;2.57;;;2.47;;
16516;SDS011;8371;52.272;9.746;2024-03-02T13:03:51;2.60;;;2.50;;
16516;SDS011;8371;52.272;9.746;2024-03-02T13:06:18;2.23;;;2.23;;
16516;SDS011;8371;52.272;9.746;2024-03-02T13:08:45;2.87;;;2.77;;
16516;SDS011;8371;52.272;9.746;2024-03-02T13:11:12;2.30;;;2.20;;
16516;SDS011;8371;52.272;9.746;2024-03-02T13:13:41;2.73;;;2.53;;
16516;SDS011;8371;52.272;9.746;2024-03-02T13:16:11;2.50;;;2.40;;
16516;SDS011;8371;52.272;9.746;2024-03-02T13:18:40;2.57;;;2.47;;
16516;SDS011;8371;52.272;9.746;2024-03-02T13:21:07;2.40;;;2.30;;
16516;SDS011;8371;52.272;9.746;2024-03-02T13:23:33;2.50;;;2.40;;
16516;SDS011;8371;52.272;9.746;2024-03-02T13:25:59;2.40;;;2.30;;
16516;SDS011;8371;52.272;9.746;2024-03-02T13:28:25;2.57;;;2.53;;
16516;SDS011;8371;52.272;9.746;2024-03-02T13:30:51;2.47;;;2.37;;
16516;SDS011;8371;52.272;9.746;2024-03-02T13:33:17;2.30;;;2.20;;
16516;SDS011;8371;52.272;9.746;2024-03-02T13:35:47;2.80;;;2.70;;
16516;SDS011;8371;52.272;9.746;2024-03-02T13:38:16;2.50;;;2.40;;
16516;SDS011;8371;52.272;9.746;2024-03-02T13:40:43;2.47;;;2.37;;
16516;SDS011;8371;52.272;9.746;2024-03-02T13:43:09;2.33;;;2.23;;
16516;SDS011;8371;52.272;9.746;2024-03-02T13:45:34;2.13;;;2.03;;
16516;SDS011;8371;52.272;9.746;2024-03-02T13:48:02;2.60;;;2.50;;
16516;SDS011;8371;52.272;9.746;2024-03-02T13:50:28;2.40;;;2.30;;
16516;SDS011;8371;52.272;9.746;2024-03-02T13:52:55;2.33;;;2.23;;
16516;SDS011;8371;52.272;9.746;2024-03-02T13:55:21;2.60;;;2.40;;
16516;SDS011;8371;52.272;9.746;2024-03-02T13:57:47;2.57;;;2.47;;
16516;SDS011;8371;52.272;9.746;2024-03-02T14:00:14;2.30;;;2.20;;
16516;SDS011;8371;52.272;9.746;2024-03-02T14:02:41;1.80;;;1.80;;
16516;SDS011;8371;52.272;9.746;2024-03-02T14:05:06;1.90;;;1.80;;
16516;SDS011;8371;52.272;9.746;2024-03-02T14:07:34;2.10;;;2.00;;
16516;SDS011;8371;52.272;9.746;2024-03-02T14:10:00;2.23;;;2.07;;
16516;SDS011;8371;52.272;9.746;2024-03-02T14:12:25;1.87;;;1.87;;
16516;SDS011;8371;52.272;9.746;2024-03-02T14:14:51;5.67;;;2.17;;
16516;SDS011;8371;52.272;9.746;2024-03-02T14:17:19;2.40;;;2.20;;
16516;SDS011;8371;52.272;9.746;2024-03-02T14:19:44;2.10;;;2.03;;
16516;SDS011;8371;52.272;9.746;2024-03-02T14:22:10;1.70;;;1.70;;
16516;SDS011;8371;52.272;9.746;2024-03-02T14:24:38;1.90;;;1.90;;
16516;SDS011;8371;52.272;9.746;2024-03-02T14:27:03;2.00;;;1.90;;
16516;SDS011;8371;52.272;9.746;2024-03-02T14:29:30;1.93;;;1.93;;
16516;SDS011;8371;52.272;9.746;2024-03-02T14:31:56;1.70;;;1.70;;
16516;SDS011;8371;52.272;9.746;2024-03-02T14:34:22;1.70;;;1.70;;
16516;SDS011;8371;52.272;9.746;2024-03-02T14:36:48;1.83;;;1.73;;
16516;SDS011;8371;52.272;9.746;2024-03-02T14:39:13;2.03;;;2.03;;
16516;SDS011;8371;52.272;9.746;2024-03-02T14:41:39;1.87;;;1.77;;
16516;SDS011;8371;52.272;9.746;2024-03-02T14:44:05;1.53;;;1.53;;
16516;SDS011;8371;52.272;9.746;2024-03-02T14:46:30;1.77;;;1.67;;
16516;SDS011;8371;52.272;9.746;2024-03-02T14:48:56;1.57;;;1.57;;
16516;SDS011;8371;52.272;9.746;2024-03-02T14:51:22;1.50;;;1.50;;
16516;SDS011;8371;52.272;9.746;2024-03-02T14:53:48;1.70;;;1.60;;
16516;SDS011;8371;52.272;9.746;2024-03-02T14:56:13;1.60;;;1.60;;
16516;SDS011;8371;52.272;9.746;2024-03-02T14:58:39;1.17;;;1.17;;
16516;SDS011;8371;52.272;9.746;2024-03-02T15:01:05;3.37;;;3.17;;
16516;SDS011;8371;52.272;9.746;2024-03-02T15:03:31;4.10;;;3.67;;